createdAt,value
2023-01-29T00:05:16.685Z,8.27
2023-01-29T00:10:28.413Z,7.10
2023-01-29T00:15:32.062Z,7.30
2023-01-29T00:20:35.746Z,7.23
2023-01-29T00:25:40.978Z,7.40
2023-01-29T00:30:44.585Z,7.33
2023-01-29T00:35:48.347Z,7.37
2023-01-29T00:41:11.028Z,7.87
2023-01-29T00:46:15.077Z,7.83
2023-01-29T00:51:18.812Z,7.70
2023-01-29T00:56:23.954Z,8.00
2023-01-29T01:01:41.441Z,7.63
2023-01-29T01:06:45.303Z,8.23
2023-01-29T01:11:51.292Z,7.57
2023-01-29T01:16:55.003Z,8.43
2023-01-29T01:21:58.702Z,8.37
2023-01-29T01:27:03.813Z,8.83
2023-01-29T01:32:07.849Z,9.00
2023-01-29T01:37:11.634Z,9.43
2023-01-29T01:42:16.892Z,8.90
2023-01-29T01:47:24.433Z,9.70
2023-01-29T01:52:28.388Z,10.03
2023-01-29T01:57:34.251Z,10.50
2023-01-29T02:02:57.155Z,9.50
2023-01-29T02:08:18.565Z,9.70
2023-01-29T02:13:24.620Z,8.77
2023-01-29T02:18:28.351Z,8.33
2023-01-29T02:23:55.681Z,8.20
2023-01-29T02:29:22.720Z,9.57
2023-01-29T02:34:55.405Z,9.03
2023-01-29T02:40:08.952Z,9.20
2023-01-29T02:45:17.250Z,9.37
2023-01-29T02:50:27.647Z,8.80
2023-01-29T02:55:37.493Z,10.00
2023-01-29T03:00:47.228Z,8.80
2023-01-29T03:05:58.713Z,9.07
2023-01-29T03:11:06.334Z,9.27
2023-01-29T03:16:19.943Z,9.50
2023-01-29T03:21:47.913Z,9.53
2023-01-29T03:27:10.973Z,9.53
2023-01-29T03:32:24.093Z,9.50
2023-01-29T03:37:35.366Z,9.77
2023-01-29T03:42:52.138Z,9.40
2023-01-29T03:48:07.911Z,9.60
2023-01-29T03:53:22.567Z,8.87
2023-01-29T03:58:36.653Z,8.73
2023-01-29T04:03:49.800Z,9.37
2023-01-29T04:09:00.123Z,9.17
2023-01-29T04:14:05.124Z,8.20
2023-01-29T04:19:10.391Z,8.57
2023-01-29T04:24:17.599Z,9.50
2023-01-29T04:29:38.227Z,9.87
2023-01-29T04:34:57.002Z,9.37
2023-01-29T04:40:12.426Z,9.90
2023-01-29T04:45:24.110Z,9.53
2023-01-29T04:50:36.080Z,9.07
2023-01-29T04:55:46.144Z,9.47
2023-01-29T05:00:54.141Z,9.67
2023-01-29T05:06:01.807Z,9.90
2023-01-29T05:11:06.937Z,9.67
2023-01-29T05:16:16.555Z,9.33
2023-01-29T05:21:23.580Z,9.30
2023-01-29T05:26:45.866Z,9.03
2023-01-29T05:31:49.480Z,9.13
2023-01-29T05:36:55.300Z,9.03
2023-01-29T05:41:58.908Z,8.17
2023-01-29T05:47:03.123Z,7.80
2023-01-29T05:52:08.340Z,8.30
2023-01-29T05:57:12.030Z,8.17
2023-01-29T06:02:15.654Z,8.27
2023-01-29T06:07:20.938Z,8.63
2023-01-29T06:12:24.600Z,8.20
2023-01-29T06:17:28.573Z,8.20
2023-01-29T06:22:35.061Z,8.33
2023-01-29T06:27:39.312Z,8.43
2023-01-29T06:32:43.219Z,7.40
2023-01-29T06:37:48.441Z,7.53
2023-01-29T06:42:52.080Z,8.30
2023-01-29T06:47:55.884Z,7.07
2023-01-29T06:53:02.246Z,6.93
2023-01-29T06:58:09.450Z,8.60
2023-01-29T07:03:13.188Z,7.90
2023-01-29T07:08:18.460Z,8.13
2023-01-29T07:13:22.323Z,7.93
2023-01-29T07:18:26.116Z,8.63
2023-01-29T07:23:31.397Z,8.43
2023-01-29T07:28:39.562Z,8.07
2023-01-29T07:33:45.359Z,7.37
2023-01-29T07:38:52.800Z,8.10
2023-01-29T07:43:56.572Z,7.07
2023-01-29T07:49:01.057Z,7.60
2023-01-29T07:54:06.688Z,6.97
2023-01-29T07:59:10.559Z,7.83
2023-01-29T08:04:14.806Z,7.83
2023-01-29T08:09:20.299Z,7.27
2023-01-29T08:14:24.742Z,7.23
2023-01-29T08:19:28.626Z,7.00
2023-01-29T08:24:47.682Z,7.00
2023-01-29T08:29:57.726Z,7.17
2023-01-29T08:35:01.343Z,6.97
2023-01-29T08:40:12.443Z,7.10
2023-01-29T08:45:16.513Z,7.03
2023-01-29T08:50:21.008Z,6.60
2023-01-29T08:55:26.315Z,7.07
2023-01-29T09:00:30.132Z,7.27
2023-01-29T09:05:34.338Z,7.30
2023-01-29T09:10:39.679Z,7.00
2023-01-29T09:15:43.477Z,7.23
2023-01-29T09:20:47.778Z,7.57
2023-01-29T09:25:53.150Z,6.40
2023-01-29T09:30:57.040Z,7.03
2023-01-29T09:36:00.986Z,6.33
2023-01-29T09:41:17.362Z,7.37
2023-01-29T09:46:25.326Z,6.87
2023-01-29T09:51:36.497Z,7.13
2023-01-29T09:56:43.697Z,6.77
2023-01-29T10:01:56.675Z,6.80
2023-01-29T10:07:16.435Z,6.07
2023-01-29T10:12:34.964Z,7.00
2023-01-29T10:17:56.888Z,6.47
2023-01-29T10:23:17.032Z,7.53
2023-01-29T10:28:25.823Z,6.97
2023-01-29T10:33:49.323Z,7.37
2023-01-29T10:39:08.509Z,7.03
2023-01-29T10:44:39.726Z,6.73
2023-01-29T10:50:01.801Z,7.43
2023-01-29T10:55:22.583Z,7.97
2023-01-29T11:00:32.944Z,7.50
2023-01-29T11:05:43.823Z,6.83
2023-01-29T11:10:55.994Z,6.80
2023-01-29T11:16:01.258Z,6.70
2023-01-29T11:21:07.045Z,6.63
2023-01-29T11:26:36.683Z,7.00
2023-01-29T11:31:42.146Z,6.47
2023-01-29T11:36:46.204Z,5.60
2023-01-29T11:41:54.255Z,5.50
2023-01-29T11:47:12.285Z,5.33
2023-01-29T11:52:23.830Z,5.73
2023-01-29T11:57:33.880Z,5.83
2023-01-29T12:02:43.913Z,5.73
2023-01-29T12:07:50.746Z,5.17
2023-01-29T12:13:06.399Z,5.13
2023-01-29T12:18:21.112Z,5.80
2023-01-29T12:23:34.556Z,5.17
2023-01-29T12:28:52.731Z,5.23
2023-01-29T12:34:06.343Z,5.47
2023-01-29T12:39:12.793Z,5.50
2023-01-29T12:44:21.446Z,5.40
2023-01-29T12:49:30.192Z,5.70
2023-01-29T12:54:40.007Z,5.50
2023-01-29T12:59:48.970Z,5.57
2023-01-29T13:05:00.907Z,5.93
2023-01-29T13:10:09.928Z,6.00
2023-01-29T13:15:24.088Z,5.67
2023-01-29T13:20:33.680Z,5.73
2023-01-29T13:25:37.540Z,5.87
2023-01-29T13:30:41.667Z,6.50
2023-01-29T13:35:47.888Z,5.70
2023-01-29T13:40:52.462Z,5.93
2023-01-29T13:45:56.829Z,6.57
2023-01-29T13:51:06.113Z,6.50
2023-01-29T13:56:43.485Z,7.03
2023-01-29T14:02:05.423Z,7.57
2023-01-29T14:07:51.436Z,7.23
2023-01-29T14:12:56.641Z,7.97
2023-01-29T14:18:16.107Z,8.47
2023-01-29T14:23:35.873Z,7.23
2023-01-29T14:28:40.220Z,8.40
2023-01-29T14:33:44.801Z,8.60
2023-01-29T14:38:52.748Z,8.30
2023-01-29T14:44:36.398Z,8.07
2023-01-29T14:49:54.703Z,7.63
2023-01-29T14:55:04.569Z,8.33
2023-01-29T15:00:20.342Z,9.53
2023-01-29T15:05:28.995Z,9.37
2023-01-29T15:10:41.598Z,8.93
2023-01-29T15:15:51.566Z,8.60
2023-01-29T15:21:05.553Z,9.10
2023-01-29T15:26:16.315Z,9.23
2023-01-29T15:31:20.310Z,8.57
2023-01-29T15:36:26.850Z,9.07
2023-01-29T15:41:32.304Z,9.23
2023-01-29T15:46:40.552Z,9.93
2023-01-29T15:51:45.129Z,9.17
2023-01-29T15:56:53.303Z,8.77
2023-01-29T16:01:57.808Z,9.43
2023-01-29T16:07:03.886Z,8.63
2023-01-29T16:12:13.992Z,8.83
2023-01-29T16:17:26.123Z,8.13
2023-01-29T16:22:34.335Z,8.33
2023-01-29T16:27:43.513Z,8.63
2023-01-29T16:32:49.063Z,7.83
2023-01-29T16:37:53.924Z,7.10
2023-01-29T16:43:31.337Z,8.67
2023-01-29T16:48:38.207Z,7.73
2023-01-29T16:53:44.824Z,6.93
2023-01-29T16:58:56.294Z,7.17
2023-01-29T17:04:08.421Z,7.77
2023-01-29T17:09:25.069Z,7.47
2023-01-29T17:14:32.515Z,7.77
2023-01-29T17:19:37.678Z,6.90
2023-01-29T17:24:41.844Z,6.87
2023-01-29T17:29:47.592Z,6.97
2023-01-29T17:34:52.454Z,6.00
2023-01-29T17:40:01.926Z,6.60
2023-01-29T17:45:12.670Z,5.93
2023-01-29T17:50:24.397Z,6.57
2023-01-29T17:55:29.164Z,5.77
2023-01-29T18:00:35.620Z,6.30
2023-01-29T18:05:42.714Z,6.60
2023-01-29T18:10:48.285Z,6.73
2023-01-29T18:15:57.190Z,6.17
2023-01-29T18:21:01.435Z,6.57
2023-01-29T18:26:07.421Z,5.70
2023-01-29T18:31:15.652Z,6.10
2023-01-29T18:36:19.754Z,5.70
2023-01-29T18:41:23.654Z,6.57
2023-01-29T18:46:32.019Z,6.00
2023-01-29T18:51:36.239Z,6.47
2023-01-29T18:57:06.234Z,6.00
2023-01-29T19:02:08.691Z,6.20
2023-01-29T19:07:12.928Z,6.30
2023-01-29T19:12:18.485Z,6.40
2023-01-29T19:17:26.447Z,6.60
2023-01-29T19:22:30.689Z,6.23
2023-01-29T19:27:37.094Z,6.23
2023-01-29T19:32:46.025Z,6.07
2023-01-29T19:37:49.855Z,5.93
2023-01-29T19:42:56.325Z,5.80
2023-01-29T19:48:01.790Z,5.83
2023-01-29T19:53:05.726Z,5.57
2023-01-29T19:58:12.676Z,5.90
2023-01-29T20:03:17.991Z,5.10
2023-01-29T20:08:24.071Z,5.93
2023-01-29T20:13:28.081Z,6.60
2023-01-29T20:18:34.188Z,6.73
2023-01-29T20:23:39.071Z,6.23
2023-01-29T20:28:43.479Z,6.20
2023-01-29T20:33:49.293Z,4.73
2023-01-29T20:38:53.142Z,4.73
2023-01-29T20:43:59.958Z,4.87
2023-01-29T20:49:07.119Z,5.90
2023-01-29T20:54:12.771Z,4.87
2023-01-29T20:59:17.096Z,5.60
2023-01-29T21:04:23.419Z,5.37
2023-01-29T21:09:27.195Z,5.23
2023-01-29T21:14:31.059Z,5.33
2023-01-29T21:19:36.621Z,5.20
2023-01-29T21:24:40.464Z,4.20
2023-01-29T21:29:44.325Z,4.93
2023-01-29T21:34:52.286Z,4.53
2023-01-29T21:39:56.290Z,4.90
2023-01-29T21:44:59.919Z,4.97
2023-01-29T21:50:05.572Z,4.63
2023-01-29T21:55:09.920Z,4.73
2023-01-29T22:00:14.695Z,4.57
2023-01-29T22:05:20.557Z,4.37
2023-01-29T22:10:24.394Z,4.47
2023-01-29T22:15:28.416Z,4.90
2023-01-29T22:20:33.588Z,6.20
2023-01-29T22:25:37.699Z,6.17
2023-01-29T22:30:41.520Z,6.27
2023-01-29T22:35:46.732Z,5.43
2023-01-29T22:40:51.576Z,4.90
2023-01-29T22:45:56.681Z,4.00
2023-01-29T22:51:10.907Z,4.23
2023-01-29T22:56:14.790Z,3.93
2023-01-29T23:01:19.652Z,5.30
2023-01-29T23:06:25.147Z,6.70
2023-01-29T23:11:28.834Z,5.73
2023-01-29T23:16:32.676Z,4.23
2023-01-29T23:21:37.993Z,4.87
2023-01-29T23:26:59.136Z,4.13
2023-01-29T23:32:03.874Z,3.63
2023-01-29T23:37:09.536Z,4.13
2023-01-29T23:42:13.341Z,3.50
2023-01-29T23:47:17.057Z,3.87
2023-01-29T23:52:22.331Z,4.13
2023-01-29T23:57:26.134Z,4.27
